createdAt,value
2024-02-02T00:02:07.972Z,18.17
2024-02-02T00:04:35.087Z,15.98
2024-02-02T00:07:02.321Z,14.70
2024-02-02T00:09:29.474Z,9.30
2024-02-02T00:11:57.101Z,11.00
2024-02-02T00:14:26.194Z,14.30
2024-02-02T00:16:53.329Z,10.68
2024-02-02T00:19:20.515Z,10.98
2024-02-02T00:21:47.670Z,13.57
2024-02-02T00:24:14.743Z,12.20
2024-02-02T00:26:41.786Z,14.18
2024-02-02T00:29:08.915Z,17.58
2024-02-02T00:31:37.510Z,19.83
2024-02-02T00:34:04.707Z,14.60
2024-02-02T00:36:31.792Z,12.75
2024-02-02T00:38:59.008Z,14.82
2024-02-02T00:41:26.167Z,16.38
2024-02-02T00:43:53.235Z,15.55
2024-02-02T00:46:20.278Z,13.80
2024-02-02T00:48:48.820Z,15.60
2024-02-02T00:51:16.092Z,14.60
2024-02-02T00:53:43.146Z,13.93
2024-02-02T00:56:10.262Z,13.43
2024-02-02T00:58:37.666Z,13.27
2024-02-02T01:01:05.096Z,12.45
2024-02-02T01:03:34.973Z,14.50
2024-02-02T01:06:04.689Z,12.30
2024-02-02T01:08:31.894Z,16.83
2024-02-02T01:11:01.955Z,14.65
2024-02-02T01:13:31.067Z,18.48
2024-02-02T01:15:58.280Z,14.55
2024-02-02T01:18:25.753Z,11.15
2024-02-02T01:20:53.064Z,15.13
2024-02-02T01:23:21.614Z,14.30
2024-02-02T01:25:48.810Z,22.13
2024-02-02T01:28:15.933Z,17.35
2024-02-02T01:30:43.089Z,15.52
2024-02-02T01:33:11.295Z,19.20
2024-02-02T01:35:38.601Z,15.43
2024-02-02T01:38:05.925Z,15.32
2024-02-02T01:40:34.695Z,18.48
2024-02-02T01:43:01.785Z,14.77
2024-02-02T01:45:28.982Z,15.65
2024-02-02T01:47:56.908Z,18.20
2024-02-02T01:50:24.217Z,16.40
2024-02-02T01:52:51.342Z,24.17
2024-02-02T01:55:18.443Z,15.63
2024-02-02T01:57:47.660Z,14.85
2024-02-02T02:00:15.499Z,18.13
2024-02-02T02:02:42.750Z,22.90
2024-02-02T02:05:11.003Z,19.05
2024-02-02T02:07:38.339Z,20.10
2024-02-02T02:10:06.405Z,20.00
2024-02-02T02:12:35.128Z,21.45
2024-02-02T02:15:04.057Z,21.58
2024-02-02T02:17:31.474Z,20.17
2024-02-02T02:19:59.755Z,16.63
2024-02-02T02:22:28.316Z,17.77
2024-02-02T02:24:55.347Z,19.27
2024-02-02T02:27:22.673Z,16.83
2024-02-02T02:29:49.743Z,19.70
2024-02-02T02:32:17.214Z,18.73
2024-02-02T02:34:44.401Z,18.17
2024-02-02T02:37:11.609Z,19.80
2024-02-02T02:39:40.103Z,18.83
2024-02-02T02:42:07.627Z,24.30
2024-02-02T02:44:34.759Z,20.15
2024-02-02T02:47:01.875Z,19.30
2024-02-02T02:49:30.296Z,21.48
2024-02-02T02:51:57.881Z,17.67
2024-02-02T02:54:25.594Z,22.08
2024-02-02T02:56:54.105Z,21.77
2024-02-02T02:59:21.229Z,19.60
2024-02-02T03:01:48.721Z,18.20
2024-02-02T03:04:17.171Z,24.80
2024-02-02T03:06:44.401Z,23.48
2024-02-02T03:09:13.017Z,23.50
2024-02-02T03:11:40.343Z,32.08
2024-02-02T03:14:08.995Z,29.13
2024-02-02T03:16:36.203Z,31.27
2024-02-02T03:19:03.456Z,31.52
2024-02-02T03:21:30.960Z,36.42
2024-02-02T03:23:58.119Z,36.05
2024-02-02T03:26:25.180Z,37.22
2024-02-02T03:28:52.246Z,29.17
2024-02-02T03:31:20.732Z,32.75
2024-02-02T03:33:48.316Z,31.20
2024-02-02T03:36:15.525Z,31.83
2024-02-02T03:38:42.695Z,25.58
2024-02-02T03:41:09.796Z,29.17
2024-02-02T03:43:36.924Z,29.17
2024-02-02T03:46:04.130Z,27.20
2024-02-02T03:48:32.743Z,27.13
2024-02-02T03:50:59.919Z,30.23
2024-02-02T03:53:27.039Z,25.67
2024-02-02T03:55:54.110Z,28.38
2024-02-02T03:58:21.219Z,23.10
2024-02-02T04:00:48.396Z,23.23
2024-02-02T04:03:16.750Z,22.30
2024-02-02T04:05:45.374Z,24.08
2024-02-02T04:08:12.503Z,25.08
2024-02-02T04:10:39.630Z,23.55
2024-02-02T04:13:06.910Z,27.27
2024-02-02T04:15:34.238Z,22.00
2024-02-02T04:18:01.426Z,23.38
2024-02-02T04:20:28.947Z,24.33
2024-02-02T04:22:57.836Z,25.40
2024-02-02T04:25:24.918Z,25.77
2024-02-02T04:27:52.304Z,23.15
2024-02-02T04:30:19.487Z,22.63
2024-02-02T04:32:46.682Z,21.75
2024-02-02T04:35:14.055Z,20.83
2024-02-02T04:37:41.189Z,26.40
2024-02-02T04:40:13.329Z,26.80
2024-02-02T04:42:40.868Z,23.70
2024-02-02T04:45:08.876Z,22.20
2024-02-02T04:47:35.956Z,20.52
2024-02-02T04:50:03.486Z,23.67
2024-02-02T04:52:30.588Z,22.98
2024-02-02T04:54:58.167Z,24.13
2024-02-02T04:57:26.882Z,26.73
2024-02-02T04:59:55.580Z,25.13
2024-02-02T05:02:22.829Z,27.85
2024-02-02T05:04:49.908Z,25.92
2024-02-02T05:07:16.988Z,23.05
2024-02-02T05:09:44.436Z,24.88
2024-02-02T05:12:12.621Z,24.50
2024-02-02T05:14:41.107Z,24.17
2024-02-02T05:17:08.210Z,22.58
2024-02-02T05:19:35.435Z,21.88
2024-02-02T05:22:02.601Z,24.98
2024-02-02T05:24:42.967Z,23.80
2024-02-02T05:27:13.874Z,26.63
2024-02-02T05:29:44.526Z,23.67
2024-02-02T05:32:11.642Z,21.73
2024-02-02T05:34:38.818Z,23.05
2024-02-02T05:37:06.114Z,25.98
2024-02-02T05:39:33.316Z,21.85
2024-02-02T05:42:04.252Z,25.25
2024-02-02T05:44:31.533Z,26.55
2024-02-02T05:47:00.113Z,22.95
2024-02-02T05:49:27.287Z,23.65
2024-02-02T05:51:54.493Z,24.17
2024-02-02T05:54:21.811Z,22.55
2024-02-02T05:56:48.965Z,28.88
2024-02-02T05:59:16.090Z,26.52
2024-02-02T06:01:43.234Z,27.80
2024-02-02T06:04:11.984Z,29.60
2024-02-02T06:06:39.147Z,25.38
2024-02-02T06:09:06.645Z,30.02
2024-02-02T06:11:33.762Z,26.90
2024-02-02T06:14:01.293Z,22.63
2024-02-02T06:16:28.851Z,34.10
2024-02-02T06:18:56.290Z,35.53
2024-02-02T06:21:25.029Z,34.00
2024-02-02T06:23:52.147Z,32.28
2024-02-02T06:26:19.217Z,30.73
2024-02-02T06:28:46.897Z,25.48
2024-02-02T06:31:17.007Z,29.80
2024-02-02T06:33:44.127Z,27.15
2024-02-02T06:36:11.282Z,25.90
2024-02-02T06:38:39.883Z,34.03
2024-02-02T06:41:08.675Z,32.80
2024-02-02T06:43:35.850Z,36.53
2024-02-02T06:46:05.754Z,33.03
2024-02-02T06:48:36.169Z,36.33
2024-02-02T06:51:05.347Z,38.13
2024-02-02T06:53:34.530Z,43.75
2024-02-02T06:56:08.239Z,31.70
2024-02-02T06:58:41.344Z,41.92
2024-02-02T07:01:08.972Z,38.58
2024-02-02T07:03:36.679Z,46.45
2024-02-02T07:06:06.873Z,51.25
2024-02-02T07:08:34.499Z,60.60
2024-02-02T07:11:39.777Z,51.67
2024-02-02T07:14:10.992Z,37.03
2024-02-02T07:16:38.371Z,52.20
2024-02-02T07:19:05.678Z,66.53
2024-02-02T07:21:34.618Z,66.22
2024-02-02T07:24:04.022Z,78.90
2024-02-02T07:26:33.381Z,83.05
2024-02-02T07:29:06.467Z,306.55
2024-02-02T07:31:39.090Z,112.85
2024-02-02T07:34:34.518Z,87.97
2024-02-02T07:37:02.508Z,96.40
2024-02-02T07:39:31.881Z,82.00
2024-02-02T07:42:01.820Z,141.23
2024-02-02T07:44:29.169Z,38.85
2024-02-02T07:46:56.217Z,43.00
2024-02-02T07:49:23.368Z,44.92
2024-02-02T07:51:50.466Z,56.78
2024-02-02T07:54:18.149Z,37.45
2024-02-02T07:56:45.524Z,32.05
2024-02-02T07:59:13.935Z,33.92
2024-02-02T08:01:41.154Z,33.13
2024-02-02T08:04:08.488Z,31.42
2024-02-02T08:06:36.168Z,38.38
2024-02-02T08:09:03.376Z,37.38
2024-02-02T08:11:36.658Z,37.25
2024-02-02T08:14:04.006Z,40.40
2024-02-02T08:16:32.517Z,37.00
2024-02-02T08:19:00.768Z,39.08
2024-02-02T08:21:28.028Z,42.42
2024-02-02T08:23:55.381Z,42.95
2024-02-02T08:26:22.559Z,40.53
2024-02-02T08:28:54.762Z,38.15
2024-02-02T08:31:22.747Z,36.83
2024-02-02T08:33:51.630Z,39.53
2024-02-02T08:36:21.702Z,39.70
2024-02-02T08:38:48.960Z,41.80
2024-02-02T08:41:16.680Z,39.92
2024-02-02T08:43:43.926Z,41.95
2024-02-02T08:46:12.381Z,46.78
2024-02-02T08:48:42.100Z,39.63
2024-02-02T08:51:48.019Z,43.00
2024-02-02T08:54:38.069Z,49.78
2024-02-02T08:57:42.388Z,43.08
2024-02-02T09:00:15.155Z,60.97
2024-02-02T09:03:00.330Z,48.85
2024-02-02T09:05:49.162Z,58.67
2024-02-02T09:08:35.225Z,48.25
2024-02-02T09:11:18.662Z,56.95
2024-02-02T09:13:46.655Z,43.38
2024-02-02T09:16:15.612Z,44.83
2024-02-02T09:18:46.311Z,35.08
2024-02-02T09:21:17.924Z,41.55
2024-02-02T09:23:52.724Z,37.65
2024-02-02T09:26:33.346Z,40.03
2024-02-02T09:29:01.853Z,41.40
2024-02-02T09:31:33.519Z,40.17
2024-02-02T09:34:06.147Z,46.45
2024-02-02T09:36:33.444Z,42.67
2024-02-02T09:39:07.475Z,39.30
2024-02-02T09:41:54.731Z,41.17
2024-02-02T09:44:36.509Z,41.13
2024-02-02T09:47:20.086Z,45.08
2024-02-02T09:50:00.381Z,42.80
2024-02-02T09:52:37.255Z,42.63
2024-02-02T09:55:13.998Z,42.38
2024-02-02T09:57:50.881Z,41.30
2024-02-02T10:00:26.173Z,42.88
2024-02-02T10:03:05.588Z,42.80
2024-02-02T10:05:43.444Z,45.20
2024-02-02T10:08:26.642Z,44.38
2024-02-02T10:11:09.646Z,43.83
2024-02-02T10:13:48.569Z,46.45
2024-02-02T10:16:28.156Z,42.30
2024-02-02T10:19:18.908Z,44.40
2024-02-02T10:21:57.226Z,43.55
2024-02-02T10:24:46.735Z,42.25
2024-02-02T10:27:30.087Z,46.00
2024-02-02T10:30:09.126Z,40.63
2024-02-02T10:32:52.845Z,47.38
2024-02-02T10:35:31.145Z,43.97
2024-02-02T10:38:11.872Z,43.35
2024-02-02T10:40:46.212Z,40.90
2024-02-02T10:43:39.617Z,45.53
2024-02-02T10:46:18.703Z,46.00
2024-02-02T10:49:04.806Z,47.53
2024-02-02T10:51:39.552Z,40.92
2024-02-02T10:54:27.544Z,40.85
2024-02-02T10:57:06.499Z,52.50
2024-02-02T10:59:44.281Z,59.95
2024-02-02T11:02:22.665Z,47.67
2024-02-02T11:05:02.315Z,55.08
2024-02-02T11:07:34.512Z,42.78
2024-02-02T11:10:04.676Z,53.63
2024-02-02T11:12:42.517Z,51.10
2024-02-02T11:15:26.592Z,54.42
2024-02-02T11:18:09.152Z,54.22
2024-02-02T11:20:49.074Z,59.85
2024-02-02T11:23:22.015Z,60.75
2024-02-02T11:25:54.962Z,67.63
2024-02-02T11:28:32.068Z,66.18
2024-02-02T11:31:10.738Z,78.40
2024-02-02T11:33:47.692Z,80.65
2024-02-02T11:36:29.369Z,82.57
2024-02-02T11:39:10.766Z,87.15
2024-02-02T11:41:40.364Z,104.68
2024-02-02T11:44:09.668Z,93.03
2024-02-02T11:46:39.321Z,97.97
2024-02-02T11:49:10.517Z,99.35
2024-02-02T11:51:41.859Z,91.00
2024-02-02T11:54:19.607Z,94.88
2024-02-02T11:56:51.130Z,61.17
2024-02-02T11:59:23.165Z,59.45
2024-02-02T12:02:07.727Z,56.42
2024-02-02T12:04:41.823Z,62.10
2024-02-02T12:07:23.970Z,59.03
2024-02-02T12:09:59.654Z,64.45
2024-02-02T12:12:33.199Z,60.83
2024-02-02T12:15:00.517Z,63.42
2024-02-02T12:17:29.761Z,66.78
2024-02-02T12:19:59.933Z,75.28
2024-02-02T12:22:27.315Z,70.38
2024-02-02T12:24:54.592Z,60.30
2024-02-02T12:27:21.924Z,59.80
2024-02-02T12:29:49.406Z,69.85
2024-02-02T12:32:16.550Z,74.55
2024-02-02T12:34:46.603Z,68.45
2024-02-02T12:37:13.898Z,59.22
2024-02-02T12:39:41.072Z,50.47
2024-02-02T12:42:08.390Z,46.05
2024-02-02T12:44:35.610Z,44.28
2024-02-02T12:47:05.714Z,61.42
2024-02-02T12:49:34.544Z,60.40
2024-02-02T12:52:03.187Z,41.22
2024-02-02T12:54:30.382Z,39.80
2024-02-02T12:56:57.868Z,41.85
2024-02-02T12:59:25.237Z,38.10
2024-02-02T13:01:52.347Z,36.55
2024-02-02T13:04:20.053Z,31.98
2024-02-02T13:06:47.561Z,32.72
2024-02-02T13:09:19.580Z,39.28
2024-02-02T13:11:47.799Z,31.75
2024-02-02T13:14:25.785Z,42.10
2024-02-02T13:17:04.968Z,46.72
2024-02-02T13:19:36.090Z,44.15
2024-02-02T13:22:03.531Z,44.33
2024-02-02T13:24:33.604Z,42.38
2024-02-02T13:27:04.659Z,40.97
2024-02-02T13:29:35.475Z,50.88
2024-02-02T13:32:04.442Z,53.88
2024-02-02T13:34:32.410Z,73.88
2024-02-02T13:37:03.953Z,73.93
2024-02-02T13:39:34.794Z,87.78
2024-02-02T13:42:06.288Z,122.63
2024-02-02T13:44:35.279Z,84.82
2024-02-02T13:47:02.374Z,111.20
2024-02-02T13:49:33.410Z,94.90
2024-02-02T13:52:05.641Z,85.28
2024-02-02T13:54:34.648Z,88.90
2024-02-02T13:57:02.192Z,75.63
2024-02-02T13:59:30.606Z,66.88
2024-02-02T14:02:05.168Z,65.90
2024-02-02T14:04:32.263Z,62.22
2024-02-02T14:06:59.537Z,66.03
2024-02-02T14:09:26.977Z,65.07
2024-02-02T14:12:04.024Z,66.55
2024-02-02T14:14:31.288Z,58.83
2024-02-02T14:17:03.014Z,59.13
2024-02-02T14:19:30.250Z,76.20
2024-02-02T14:22:05.506Z,68.65
2024-02-02T14:24:32.839Z,71.55
2024-02-02T14:27:02.864Z,60.03
2024-02-02T14:29:40.723Z,62.05
2024-02-02T14:32:08.845Z,48.50
2024-02-02T14:34:36.358Z,52.88
2024-02-02T14:37:04.619Z,45.78
2024-02-02T14:39:32.691Z,53.60
2024-02-02T14:42:01.803Z,46.10
2024-02-02T14:44:30.162Z,48.65
2024-02-02T14:46:58.061Z,35.33
2024-02-02T14:49:27.263Z,44.53
2024-02-02T14:51:55.287Z,36.38
2024-02-02T14:54:24.634Z,38.92
2024-02-02T14:56:52.366Z,45.45
2024-02-02T14:59:30.824Z,39.63
2024-02-02T15:01:58.105Z,47.08
2024-02-02T15:04:25.603Z,41.38
2024-02-02T15:06:53.201Z,46.00
2024-02-02T15:09:20.901Z,48.67
2024-02-02T15:11:48.286Z,41.25
2024-02-02T15:14:16.244Z,45.63
2024-02-02T15:16:44.988Z,44.00
2024-02-02T15:19:12.738Z,40.30
2024-02-02T15:21:39.990Z,43.90
2024-02-02T15:24:07.388Z,38.50
2024-02-02T15:26:36.398Z,39.83
2024-02-02T15:29:03.775Z,39.58
2024-02-02T15:31:30.812Z,39.90
2024-02-02T15:34:01.292Z,39.90
2024-02-02T15:36:30.125Z,34.42
2024-02-02T15:39:09.743Z,37.60
2024-02-02T15:41:44.622Z,39.03
2024-02-02T15:44:11.736Z,39.90
2024-02-02T15:46:39.097Z,40.60
2024-02-02T15:49:07.716Z,34.72
2024-02-02T15:51:34.828Z,51.60
2024-02-02T15:54:01.933Z,41.10
2024-02-02T15:56:29.089Z,35.47
2024-02-02T15:58:56.114Z,41.47
2024-02-02T16:01:23.300Z,41.55
2024-02-02T16:03:51.004Z,45.30
2024-02-02T16:06:25.427Z,50.70
2024-02-02T16:08:52.548Z,42.47
2024-02-02T16:11:20.599Z,50.22
2024-02-02T16:13:49.040Z,52.17
2024-02-02T16:16:16.282Z,48.22
2024-02-02T16:18:43.558Z,49.67
2024-02-02T16:21:12.471Z,48.13
2024-02-02T16:23:41.779Z,48.60
2024-02-02T16:26:09.045Z,47.47
2024-02-02T16:28:36.162Z,72.85
2024-02-02T16:31:04.477Z,72.38
2024-02-02T16:33:31.711Z,70.05
2024-02-02T16:35:58.950Z,63.70
2024-02-02T16:38:26.064Z,52.33
2024-02-02T16:40:54.607Z,42.92
2024-02-02T16:43:21.665Z,44.30
2024-02-02T16:45:49.655Z,42.88
2024-02-02T16:48:19.178Z,40.08
2024-02-02T16:50:46.857Z,43.88
2024-02-02T16:53:14.210Z,48.92
2024-02-02T16:55:41.650Z,49.83
2024-02-02T16:58:10.176Z,55.42
2024-02-02T17:00:38.036Z,56.08
2024-02-02T17:03:05.593Z,52.63
2024-02-02T17:05:32.742Z,41.97
2024-02-02T17:08:00.047Z,37.63
2024-02-02T17:10:27.436Z,37.47
2024-02-02T17:12:54.489Z,39.05
2024-02-02T17:15:23.469Z,37.80
2024-02-02T17:17:50.534Z,33.17
2024-02-02T17:20:19.194Z,30.83
2024-02-02T17:22:46.531Z,31.23
2024-02-02T17:25:13.615Z,35.13
2024-02-02T17:27:42.431Z,38.17
2024-02-02T17:30:14.283Z,27.48
2024-02-02T17:32:42.976Z,29.52
2024-02-02T17:35:10.356Z,27.42
2024-02-02T17:37:38.668Z,27.30
2024-02-02T17:40:08.597Z,30.45
2024-02-02T17:42:38.202Z,32.15
2024-02-02T17:45:06.227Z,29.60
2024-02-02T17:47:33.320Z,28.33
2024-02-02T17:50:04.008Z,29.23
2024-02-02T17:52:31.642Z,30.88
2024-02-02T17:54:58.831Z,34.00
2024-02-02T17:57:26.351Z,36.05
2024-02-02T17:59:53.573Z,32.47
2024-02-02T18:02:20.895Z,36.60
2024-02-02T18:04:47.953Z,31.13
2024-02-02T18:07:16.663Z,41.28
2024-02-02T18:09:43.923Z,33.30
2024-02-02T18:12:11.899Z,38.35
2024-02-02T18:14:39.079Z,35.10
2024-02-02T18:17:06.576Z,40.45
2024-02-02T18:19:34.004Z,40.55
2024-02-02T18:22:01.322Z,38.25
2024-02-02T18:24:29.923Z,44.13
2024-02-02T18:26:57.211Z,42.58
2024-02-02T18:29:24.225Z,43.90
2024-02-02T18:31:51.395Z,43.80
2024-02-02T18:34:18.513Z,40.03
2024-02-02T18:36:45.719Z,37.25
2024-02-02T18:39:14.095Z,43.55
2024-02-02T18:41:42.643Z,43.15
2024-02-02T18:44:10.466Z,44.95
2024-02-02T18:46:37.703Z,39.08
2024-02-02T18:49:05.869Z,42.08
2024-02-02T18:51:33.661Z,38.78
2024-02-02T18:54:00.919Z,36.92
2024-02-02T18:56:28.376Z,35.28
2024-02-02T18:58:56.902Z,35.72
2024-02-02T19:01:25.052Z,40.63
2024-02-02T19:03:52.948Z,35.70
2024-02-02T19:06:20.550Z,36.53
2024-02-02T19:08:47.801Z,36.42
2024-02-02T19:11:15.419Z,35.05
2024-02-02T19:13:42.582Z,33.03
2024-02-02T19:16:18.506Z,34.25
2024-02-02T19:18:45.744Z,40.03
2024-02-02T19:21:18.954Z,40.67
2024-02-02T19:23:46.149Z,39.50
2024-02-02T19:26:13.381Z,47.30
2024-02-02T19:28:40.545Z,42.95
2024-02-02T19:31:07.803Z,45.20
2024-02-02T19:33:36.774Z,44.25
2024-02-02T19:36:04.545Z,44.75
2024-02-02T19:38:33.570Z,36.88
2024-02-02T19:41:00.630Z,39.75
2024-02-02T19:43:27.807Z,49.47
2024-02-02T19:45:54.866Z,46.28
2024-02-02T19:48:22.256Z,49.30
2024-02-02T19:50:51.277Z,41.20
2024-02-02T19:53:18.304Z,45.00
2024-02-02T19:55:45.453Z,58.00
2024-02-02T19:58:14.810Z,46.90
2024-02-02T20:00:42.140Z,47.05
2024-02-02T20:03:09.279Z,52.50
2024-02-02T20:05:36.628Z,49.40
2024-02-02T20:08:06.283Z,51.13
2024-02-02T20:10:33.287Z,45.33
2024-02-02T20:13:00.359Z,46.92
2024-02-02T20:15:28.420Z,44.53
2024-02-02T20:17:55.796Z,46.72
2024-02-02T20:20:24.675Z,49.38
2024-02-02T20:22:51.777Z,43.33
2024-02-02T20:25:20.354Z,48.38
2024-02-02T20:27:47.534Z,49.05
2024-02-02T20:30:15.378Z,47.10
2024-02-02T20:32:42.569Z,45.47
2024-02-02T20:35:09.706Z,46.78
2024-02-02T20:37:36.949Z,45.92
2024-02-02T20:40:05.289Z,51.72
2024-02-02T20:42:33.898Z,50.83
2024-02-02T20:45:04.517Z,54.17
2024-02-02T20:47:33.163Z,54.92
2024-02-02T20:50:00.408Z,58.17
2024-02-02T20:52:27.847Z,61.45
2024-02-02T20:54:55.805Z,57.95
2024-02-02T20:57:22.921Z,60.05
2024-02-02T20:59:51.442Z,65.57
2024-02-02T21:02:18.529Z,62.45
2024-02-02T21:04:45.881Z,59.20
2024-02-02T21:07:13.181Z,74.57
2024-02-02T21:09:40.470Z,68.30
2024-02-02T21:12:08.429Z,69.63
2024-02-02T21:14:35.534Z,67.97
2024-02-02T21:17:04.276Z,62.88
2024-02-02T21:19:32.223Z,64.60
2024-02-02T21:21:59.683Z,73.93
2024-02-02T21:24:26.768Z,74.05
2024-02-02T21:26:53.830Z,68.65
2024-02-02T21:29:20.982Z,65.80
2024-02-02T21:31:48.037Z,73.57
2024-02-02T21:34:17.033Z,58.97
2024-02-02T21:36:44.558Z,58.50
2024-02-02T21:39:12.237Z,53.90
2024-02-02T21:41:39.514Z,53.90
2024-02-02T21:44:10.131Z,53.83
2024-02-02T21:46:37.451Z,55.33
2024-02-02T21:49:04.748Z,49.28
2024-02-02T21:51:33.366Z,57.50
2024-02-02T21:54:00.456Z,57.50
2024-02-02T21:56:27.724Z,57.22
2024-02-02T21:58:54.800Z,53.80
2024-02-02T22:01:21.944Z,57.03
2024-02-02T22:03:49.054Z,61.45
2024-02-02T22:06:16.269Z,60.20
2024-02-02T22:08:44.748Z,57.35
2024-02-02T22:11:14.395Z,62.38
2024-02-02T22:13:41.670Z,58.63
2024-02-02T22:16:10.264Z,63.13
2024-02-02T22:18:37.751Z,61.10
2024-02-02T22:21:05.431Z,62.33
2024-02-02T22:23:32.597Z,62.50
2024-02-02T22:26:01.043Z,62.28
2024-02-02T22:28:29.037Z,65.57
2024-02-02T22:30:56.259Z,63.90
2024-02-02T22:33:23.373Z,72.90
2024-02-02T22:35:50.481Z,74.32
2024-02-02T22:38:17.842Z,69.78
2024-02-02T22:40:44.934Z,70.07
2024-02-02T22:43:13.346Z,72.78
2024-02-02T22:45:40.423Z,77.38
2024-02-02T22:48:07.812Z,73.20
2024-02-02T22:50:34.958Z,80.22
2024-02-02T22:53:02.038Z,73.13
2024-02-02T22:55:29.106Z,85.82
2024-02-02T22:57:56.290Z,92.75
2024-02-02T23:00:24.856Z,105.40
2024-02-02T23:02:51.943Z,117.53
2024-02-02T23:05:19.019Z,148.02
2024-02-02T23:07:46.230Z,102.45
2024-02-02T23:10:13.540Z,95.93
2024-02-02T23:12:40.805Z,90.78
2024-02-02T23:15:09.154Z,77.15
2024-02-02T23:17:37.918Z,78.45
2024-02-02T23:20:06.269Z,91.80
2024-02-02T23:22:33.409Z,101.22
2024-02-02T23:25:00.475Z,104.18
2024-02-02T23:27:27.831Z,111.85
2024-02-02T23:29:54.936Z,157.75
2024-02-02T23:32:22.120Z,219.65
2024-02-02T23:34:51.064Z,209.32
2024-02-02T23:37:18.157Z,140.38
2024-02-02T23:39:45.245Z,170.32
2024-02-02T23:42:12.462Z,133.27
2024-02-02T23:44:39.605Z,224.73
2024-02-02T23:47:10.363Z,218.65
2024-02-02T23:49:37.855Z,249.95
2024-02-02T23:52:06.983Z,272.77
2024-02-02T23:54:34.149Z,224.63
2024-02-02T23:57:01.342Z,302.20
2024-02-02T23:59:28.398Z,362.90
